Master — WCY6528 — position and weather

sailwx.info

Track history (hours):
 
Tides and Currents Weather Stations Pressure Air Temp Water Temp Dewpoint Dewpoint Depression Visibility Wind Speed Wind Dir Waves Ship Positions

Master

Owner: Crowley Marine Services, SEATTLE, WA. More information available from US FCC via Universal Licensing System and Coast Guard Vessel Documentation Center.

Last reported at 2017-Sep-24 14:01 UTC. Time now 2017-Sep-24 14:09 UTC.
Position N 33°44' W 118°17'.

Length 30 m; draft 5.3 m.

Type: Tug. MMSI: 366755010.

Date/timePositionNaut miles runAvg speedWind from/ knotsBaromVisibWave heightAir tempDewpointWater temp
2017-Sep-24 14:01N 33°44' W 118°17'0 0.0
2017-Sep-24 13:31N 33°44' W 118°17'0 0.0
2017-Sep-24 13:00N 33°44' W 118°17'0 0.0
2017-Sep-24 12:30N 33°44' W 118°17'0 0.0
2017-Sep-24 12:01N 33°44' W 118°17'0 0.0
2017-Sep-24 11:31N 33°44' W 118°17'0 0.0
2017-Sep-24 11:00N 33°44' W 118°17'0 0.0
2017-Sep-24 10:30N 33°44' W 118°17'0 0.0
2017-Sep-24 10:00N 33°44' W 118°17'0 0.0
2017-Sep-24 09:30N 33°44' W 118°17'0 0.0
2017-Sep-24 09:00N 33°44' W 118°17'0 0.0
2017-Sep-24 08:30N 33°44' W 118°17'0 0.0
2017-Sep-24 08:01N 33°44' W 118°17'0 0.0
2017-Sep-24 07:26N 33°44' W 118°17'0 0.0
2017-Sep-24 07:00N 33°44' W 118°17'0 0.0
2017-Sep-24 06:30N 33°44' W 118°17'0 0.0
2017-Sep-24 05:58N 33°44' W 118°17'0 0.0
2017-Sep-24 05:28N 33°44' W 118°17'0 0.0
2017-Sep-24 05:00N 33°44' W 118°17'0 0.0
2017-Sep-24 04:30N 33°44' W 118°17'0 0.0
2017-Sep-24 04:01N 33°44' W 118°17'0 0.0
2017-Sep-24 03:30N 33°44' W 118°17'1 1.6
2017-Sep-24 03:00N 33°44' W 118°16'2 4.5
2017-Sep-24 02:30N 33°46' W 118°16'0 0.1
2017-Sep-24 01:58N 33°46' W 118°16'2 3.7
2017-Sep-24 01:30N 33°44' W 118°17'0 0.1
2017-Sep-24 00:45N 33°44' W 118°17'0 0.0
2017-Sep-24 00:31N 33°44' W 118°17'0 0.0
2017-Sep-24 00:00N 33°44' W 118°17'0 0.0
2017-Sep-23 23:30N 33°44' W 118°17'0 0.0
2017-Sep-23 23:00N 33°44' W 118°17'0 0.0
2017-Sep-23 22:30N 33°44' W 118°17'0 0.0
2017-Sep-23 21:55N 33°44' W 118°17'0 0.0
2017-Sep-23 21:26N 33°44' W 118°17'0 0.0
2017-Sep-23 21:00N 33°44' W 118°17'0 0.0
2017-Sep-23 20:19N 33°44' W 118°17'0 0.0
2017-Sep-23 19:55N 33°44' W 118°17'2 0.0
2017-Sep-22 02:00N 33°45' W 118°15'0 0.1
2017-Sep-22 01:27N 33°45' W 118°15'1 3.2
2017-Sep-22 01:00N 33°46' W 118°13'1 1.2
2017-Sep-22 00:30N 33°46' W 118°13'3 5.6
2017-Sep-21 23:59N 33°43' W 118°15'2 4.6
2017-Sep-21 23:29N 33°44' W 118°17'0 0.0
2017-Sep-21 22:59N 33°44' W 118°17'0 0.0
2017-Sep-21 22:30N 33°44' W 118°17'0 0.0
2017-Sep-21 22:00N 33°44' W 118°17'0 0.0
2017-Sep-21 21:30N 33°44' W 118°17'0 0.0
2017-Sep-21 21:00N 33°44' W 118°17'0 0.0
2017-Sep-21 20:29N 33°44' W 118°17'0 0.0
2017-Sep-21 20:00N 33°44' W 118°17'0 0.0
2017-Sep-21 19:30N 33°44' W 118°17'0 0.0
2017-Sep-21 19:00N 33°44' W 118°17'0 0.0
2017-Sep-21 18:30N 33°44' W 118°17'0 0.0
2017-Sep-21 18:00N 33°44' W 118°17'0 0.0
2017-Sep-21 17:30N 33°44' W 118°17'0 0.0
2017-Sep-21 17:00N 33°44' W 118°17'0 0.0
2017-Sep-21 16:30N 33°44' W 118°17'0 0.0
2017-Sep-21 16:00N 33°44' W 118°17'0 0.0
2017-Sep-21 15:29N 33°44' W 118°17'0 0.0
2017-Sep-21 14:55N 33°44' W 118°17'0 0.0
2017-Sep-21 14:29N 33°44' W 118°17'0 0.0
2017-Sep-21 13:59N 33°44' W 118°17'0 0.0
2017-Sep-21 13:30N 33°44' W 118°17'2 3.9
2017-Sep-21 12:59N 33°46' W 118°15'1 1.7
2017-Sep-21 12:29N 33°45' W 118°16'3 6.0
2017-Sep-21 12:00N 33°43' W 118°15'1 2.2
2017-Sep-21 11:30N 33°43' W 118°14'2 3.2
2017-Sep-21 10:58N 33°45' W 118°13'1 1.8
2017-Sep-21 10:28N 33°45' W 118°13'0 0.1
2017-Sep-21 10:00N 33°45' W 118°13'0 0.1
2017-Sep-21 09:30N 33°45' W 118°13'1 1.7
2017-Sep-21 08:57N 33°46' W 118°13'2 4.7
2017-Sep-21 08:28N 33°44' W 118°12'1 0.9
2017-Sep-21 07:28N 33°44' W 118°12'3 7.2
2017-Sep-21 07:00N 33°43' W 118°16'2 3.5
2017-Sep-21 06:30N 33°44' W 118°17'0 0.0
2017-Sep-21 06:00N 33°44' W 118°17'0 0.0
2017-Sep-21 05:30N 33°44' W 118°17'0 0.0
2017-Sep-21 05:01N 33°44' W 118°17'0 0.0
2017-Sep-21 04:30N 33°44' W 118°17'0 0.0
2017-Sep-21 04:01N 33°44' W 118°17'0 0.0
2017-Sep-21 03:30N 33°44' W 118°17'0 0.0
2017-Sep-21 03:00N 33°44' W 118°17'0 0.0
2017-Sep-21 02:30N 33°44' W 118°17'0 0.0
2017-Sep-21 02:01N 33°44' W 118°17'0 0.0
2017-Sep-21 01:31N 33°44' W 118°17'0 0.0
2017-Sep-21 01:00N 33°44' W 118°17'0 0.0
2017-Sep-21 00:29N 33°44' W 118°17'0 0.0
2017-Sep-21 00:01N 33°44' W 118°17'1 1.8
2017-Sep-20 23:29N 33°45' W 118°16'0 0.1
2017-Sep-20 23:00N 33°45' W 118°17'1 2.5
2017-Sep-20 22:31N 33°44' W 118°17'2 4.1
2017-Sep-20 22:01N 33°43' W 118°15'2 3.7
2017-Sep-20 21:30N 33°44' W 118°16'1 1.0
2017-Sep-20 21:01N 33°44' W 118°17'0 0.0
2017-Sep-20 20:30N 33°44' W 118°17'0 0.0
2017-Sep-20 20:01N 33°44' W 118°17'1 2.9
2017-Sep-20 19:30N 33°46' W 118°16'0 0.1
2017-Sep-20 19:01N 33°46' W 118°16'1 1.4
2017-Sep-20 18:30N 33°45' W 118°16'1 1.6
2017-Sep-20 18:01N 33°44' W 118°17'0 0.0
2017-Sep-20 17:30N 33°44' W 118°17'0 0.0
2017-Sep-20 17:00N 33°44' W 118°17'0 0.0
2017-Sep-20 16:31N 33°44' W 118°17'0 0.0
2017-Sep-20 16:01N 33°44' W 118°17'0 0.0
2017-Sep-20 15:29N 33°44' W 118°17'0 0.0
2017-Sep-20 14:46N 33°44' W 118°17'0 0.0
2017-Sep-20 14:00N 33°44' W 118°17'1 1.9
2017-Sep-20 13:30N 33°45' W 118°16'1 1.1
2017-Sep-20 12:59N 33°46' W 118°16'1 1.2
2017-Sep-20 12:31N 33°45' W 118°16'1 2.5
2017-Sep-20 12:00N 33°44' W 118°16'2 4.0
2017-Sep-20 11:30N 33°43' W 118°15'1 2.8
2017-Sep-20 11:00N 33°43' W 118°16'1 2.5
2017-Sep-20 10:31N 33°44' W 118°17'0 0.0
2017-Sep-20 09:57N 33°44' W 118°17'0 0.0
2017-Sep-20 09:28N 33°44' W 118°17'0 0.0
2017-Sep-20 08:59N 33°44' W 118°17'0 0.0
2017-Sep-20 08:30N 33°44' W 118°17'0 0.0
2017-Sep-20 08:00N 33°44' W 118°17'0 0.0
2017-Sep-20 07:31N 33°44' W 118°17'0 0.0
2017-Sep-20 06:59N 33°44' W 118°17'0 0.0
2017-Sep-20 06:29N 33°44' W 118°17'0 0.0
2017-Sep-20 06:00N 33°44' W 118°17'0 0.0
2017-Sep-20 05:30N 33°44' W 118°17'0 0.0
2017-Sep-20 05:00N 33°44' W 118°17'0 0.0
2017-Sep-20 04:29N 33°44' W 118°17'0 0.0
2017-Sep-20 04:00N 33°44' W 118°17'0 0.0
2017-Sep-20 03:30N 33°44' W 118°17'1 1.0
2017-Sep-20 02:59N 33°45' W 118°16'2 3.9
2017-Sep-20 02:31N 33°46' W 118°15'0 0.5
2017-Sep-20 02:01N 33°46' W 118°15'1 1.2
2017-Sep-20 01:30N 33°46' W 118°15'2 4.3
2017-Sep-20 01:00N 33°44' W 118°16'2 5.0
2017-Sep-20 00:30N 33°44' W 118°13'1 2.9
2017-Sep-20 00:00N 33°45' W 118°13'0 0.1
2017-Sep-19 23:30N 33°45' W 118°13'0 0.0
2017-Sep-19 23:00N 33°45' W 118°13'0 0.0
2017-Sep-19 22:30N 33°45' W 118°13'0 0.0
2017-Sep-19 22:00N 33°45' W 118°13'0 0.3
2017-Sep-19 21:30N 33°45' W 118°13'3 5.1
2017-Sep-19 20:59N 33°43' W 118°15'3 5.2
2017-Sep-19 20:30N 33°45' W 118°16'1 1.9
2017-Sep-19 19:59N 33°46' W 118°16'0 0.8
2017-Sep-19 19:30N 33°46' W 118°16'1 2.8
2017-Sep-19 18:59N 33°44' W 118°17'0 0.0
2017-Sep-19 18:28N 33°44' W 118°17'0 0.0
2017-Sep-19 17:58N 33°44' W 118°17'0 0.0
2017-Sep-19 17:30N 33°44' W 118°17'0 0.0
2017-Sep-19 16:56N 33°44' W 118°17'0 0.0
2017-Sep-19 16:27N 33°44' W 118°17'0 0.0
2017-Sep-19 16:00N 33°44' W 118°17'0 0.0
2017-Sep-19 15:27N 33°44' W 118°17'0 0.8
2017-Sep-19 15:00N 33°44' W 118°17'3 5.2
2017-Sep-19 14:30N 33°44' W 118°13'2 3.2
2017-Sep-19 13:47N 33°46' W 118°13'0 0.0
2017-Sep-19 13:24N 33°46' W 118°13'0 0.2
2017-Sep-19 13:00N 33°46' W 118°13'1 2.0
2017-Sep-19 12:30N 33°45' W 118°13'1 2.0
2017-Sep-19 11:59N 33°44' W 118°13'1 2.4
2017-Sep-19 11:26N 33°45' W 118°14'0 0.1
2017-Sep-19 10:59N 33°45' W 118°14'1 2.5
2017-Sep-19 10:24N 33°44' W 118°13'1 1.7
2017-Sep-19 09:40N 33°44' W 118°12'0 0.2
2017-Sep-19 09:22N 33°44' W 118°12'0 0.1
2017-Sep-19 08:56N 33°44' W 118°12'1 3.0
2017-Sep-19 08:30N 33°45' W 118°12'0 0.7
2017-Sep-19 07:52N 33°45' W 118°13'0 0.0
2017-Sep-19 07:30N 33°45' W 118°13'0 0.0
2017-Sep-19 06:54N 33°45' W 118°13'0 0.0
2017-Sep-19 06:27N 33°45' W 118°13'0 0.0
2017-Sep-19 05:57N 33°45' W 118°13'0 0.0
2017-Sep-19 05:28N 33°45' W 118°13'0 0.0
2017-Sep-19 04:56N 33°45' W 118°13'0 0.0
2017-Sep-19 04:30N 33°45' W 118°13'2 3.2
2017-Sep-19 04:01N 33°44' W 118°12'3 5.3
2017-Sep-19 03:30N 33°46' W 118°13'0 0.7
2017-Sep-19 03:00N 33°46' W 118°13'1 2.0
2017-Sep-19 02:27N 33°45' W 118°13'0 0.5
2017-Sep-19 02:00N 33°45' W 118°13'1 1.9
2017-Sep-19 01:30N 33°45' W 118°14'0 0.3
2017-Sep-19 01:00N 33°45' W 118°14'1 2.2
2017-Sep-19 00:30N 33°45' W 118°13'0 0.0
2017-Sep-19 00:00N 33°45' W 118°13'0 0.1
2017-Sep-18 23:29N 33°45' W 118°13'0 0.6
2017-Sep-18 23:00N 33°45' W 118°13'1 1.4
2017-Sep-18 22:30N 33°44' W 118°12'1 2.8
2017-Sep-18 22:00N 33°44' W 118°11'1 1.3
2017-Sep-18 21:30N 33°44' W 118°12'2 3.1
2017-Sep-18 20:59N 33°45' W 118°12'1 1.5
2017-Sep-18 20:27N 33°44' W 118°12'3 6.5
2017-Sep-18 19:59N 33°44' W 118°09'2 3.7
2017-Sep-18 19:30N 33°44' W 118°11'4 7.9
2017-Sep-18 19:00N 33°43' W 118°16'2 3.5
2017-Sep-18 18:30N 33°44' W 118°17'0 0.0
2017-Sep-18 18:00N 33°44' W 118°17'0 0.0
2017-Sep-18 17:30N 33°44' W 118°17'0 0.0
2017-Sep-18 17:00N 33°44' W 118°17'0 0.0
2017-Sep-18 16:29N 33°44' W 118°17'0 0.0
2017-Sep-18 16:00N 33°44' W 118°17'0 0.0
2017-Sep-18 15:23N 33°44' W 118°17'0 0.0
2017-Sep-18 14:58N 33°44' W 118°17'0 0.0
2017-Sep-18 14:29N 33°44' W 118°17'0 0.0
2017-Sep-18 13:59N 33°44' W 118°17'0 0.0
2017-Sep-18 13:23N 33°44' W 118°17'1 2.3
2017-Sep-18 13:00N 33°44' W 118°16'1 1.3
2017-Sep-18 12:30N 33°44' W 118°16'0 0.3
2017-Sep-18 11:59N 33°44' W 118°15'0 0.2
2017-Sep-18 11:23N 33°44' W 118°15'0 0.1
2017-Sep-18 10:57N 33°44' W 118°15'0 0.2
2017-Sep-18 10:29N 33°44' W 118°15'2 3.1
2017-Sep-18 09:59N 33°44' W 118°14'2 3.5
2017-Sep-18 09:30N 33°45' W 118°13'0 0.3
2017-Sep-18 08:47N 33°45' W 118°13'0 0.4
2017-Sep-18 08:29N 33°45' W 118°13'3 6.3
2017-Sep-18 07:59N 33°43' W 118°15'2 3.2
2017-Sep-18 07:27N 33°44' W 118°17'0 0.0
2017-Sep-18 06:52N 33°44' W 118°17'0 0.0
2017-Sep-18 06:27N 33°44' W 118°17'0 0.0
2017-Sep-18 06:00N 33°44' W 118°17'0 0.0
2017-Sep-18 05:30N 33°44' W 118°17'0 0.0
2017-Sep-18 04:59N 33°44' W 118°17'0 0.0
2017-Sep-18 04:24N 33°44' W 118°17'0 0.0
2017-Sep-18 03:57N 33°44' W 118°17'0 0.0
2017-Sep-18 03:30N 33°44' W 118°17'0 0.0
2017-Sep-18 03:00N 33°44' W 118°17'0 0.0
2017-Sep-18 02:30N 33°44' W 118°17'0 0.0
2017-Sep-18 01:55N 33°44' W 118°17'0 0.0
2017-Sep-18 01:26N 33°44' W 118°17'0 0.0
2017-Sep-18 00:56N 33°44' W 118°17'0 0.0
2017-Sep-18 00:29N 33°44' W 118°17'0 0.0
2017-Sep-18 00:00N 33°44' W 118°17'0 0.0
2017-Sep-17 23:28N 33°44' W 118°17'0 0.0
2017-Sep-17 23:00N 33°44' W 118°17'0 0.0
2017-Sep-17 22:30N 33°44' W 118°17'0 0.0
2017-Sep-17 22:00N 33°44' W 118°17'0 0.0
2017-Sep-17 21:28N 33°44' W 118°17'0 0.0
2017-Sep-17 21:00N 33°44' W 118°17'0 0.0
2017-Sep-17 20:29N 33°44' W 118°17'0 0.0
2017-Sep-17 19:59N 33°44' W 118°17'0 0.0
2017-Sep-17 19:29N 33°44' W 118°17'0 0.0
2017-Sep-17 19:00N 33°44' W 118°17'0 0.0
2017-Sep-17 18:30N 33°44' W 118°17'0 0.0
2017-Sep-17 17:58N 33°44' W 118°17'0 0.0
2017-Sep-17 17:28N 33°44' W 118°17'0 0.0
2017-Sep-17 16:59N 33°44' W 118°17'0 0.0
2017-Sep-17 16:14N 33°44' W 118°17'0 0.9
2017-Sep-17 15:49N 33°44' W 118°17'3 5.2
2017-Sep-17 15:16N 33°44' W 118°13'2 4.4
2017-Sep-17 14:51N 33°46' W 118°13'0 0.0
2017-Sep-17 13:46N 33°46' W 118°13'0 0.7
2017-Sep-17 13:27N 33°46' W 118°13'1 2.8
2017-Sep-17 12:56N 33°45' W 118°13'2 4.9
2017-Sep-17 12:30N 33°44' W 118°11'0 0.2
2017-Sep-17 11:55N 33°44' W 118°11'1 1.9
2017-Sep-17 11:30N 33°44' W 118°12'4 7.4
2017-Sep-17 10:59N 33°44' W 118°16'1 1.7
2017-Sep-17 10:30N 33°44' W 118°17'0 0.0
2017-Sep-17 09:52N 33°44' W 118°17'0 0.0
2017-Sep-17 09:28N 33°44' W 118°17'0 0.0
2017-Sep-17 09:00N 33°44' W 118°17'0 0.0
2017-Sep-17 08:28N 33°44' W 118°17'0 0.7
2017-Sep-17 07:59N 33°44' W 118°17'1 2.2
2017-Sep-17 07:29N 33°45' W 118°16'0 0.8
2017-Sep-17 06:59N 33°45' W 118°16'1 2.6
2017-Sep-17 06:29N 33°44' W 118°17'0 0.0
2017-Sep-17 06:00N 33°44' W 118°17'0 0.0
2017-Sep-17 05:29N 33°44' W 118°17'0 0.0
2017-Sep-17 04:57N 33°44' W 118°17'0 0.0
2017-Sep-17 04:30N 33°44' W 118°17'0 0.0
2017-Sep-17 03:59N 33°44' W 118°17'0 0.0
2017-Sep-17 03:30N 33°44' W 118°17'0 0.0
2017-Sep-17 03:00N 33°44' W 118°17'0 0.0
2017-Sep-17 02:30N 33°44' W 118°17'0 0.0
2017-Sep-17 02:00N 33°44' W 118°17'0 0.0
2017-Sep-17 01:30N 33°44' W 118°17'0 0.0
2017-Sep-17 01:00N 33°44' W 118°17'0 0.0
2017-Sep-17 00:30N 33°44' W 118°17'0 0.0
2017-Sep-16 23:59N 33°44' W 118°17'0 0.0
2017-Sep-16 23:28N 33°44' W 118°17'0 0.0
2017-Sep-16 22:57N 33°44' W 118°17'0 0.0
2017-Sep-16 22:28N 33°44' W 118°17'0 0.0
2017-Sep-16 22:00N 33°44' W 118°17'0 0.0
2017-Sep-16 21:30N 33°44' W 118°17'0 0.0
2017-Sep-16 21:00N 33°44' W 118°17'0 0.0
2017-Sep-16 20:30N 33°44' W 118°17'0 0.0
2017-Sep-16 20:00N 33°44' W 118°17'0 0.0
2017-Sep-16 19:29N 33°44' W 118°17'0 0.0
2017-Sep-16 19:00N 33°44' W 118°17'0 0.0
2017-Sep-16 18:30N 33°44' W 118°17'0 0.0
2017-Sep-16 18:00N 33°44' W 118°17'0 0.0
2017-Sep-16 17:27N 33°44' W 118°17'0 0.0
2017-Sep-16 16:52N 33°44' W 118°17'0 0.0
2017-Sep-16 16:25N 33°44' W 118°17'0 0.0
2017-Sep-16 16:00N 33°44' W 118°17'0 0.0
2017-Sep-16 15:30N 33°44' W 118°17'0 0.0
2017-Sep-16 14:55N 33°44' W 118°17'0 0.0
2017-Sep-16 14:23N 33°44' W 118°17'0 0.0
2017-Sep-16 13:57N 33°44' W 118°17'0 0.0
2017-Sep-16 13:11N 33°44' W 118°17'0 0.0
2017-Sep-16 12:51N 33°44' W 118°17'0 0.0
2017-Sep-16 12:19N 33°44' W 118°17'0 0.0
2017-Sep-16 12:00N 33°44' W 118°17'0 0.0
2017-Sep-16 11:30N 33°44' W 118°17'0 0.0
2017-Sep-16 10:58N 33°44' W 118°17'0 0.0
2017-Sep-16 10:28N 33°44' W 118°17'0 0.0
2017-Sep-16 10:00N 33°44' W 118°17'0 0.0
2017-Sep-16 09:29N 33°44' W 118°17'0 0.0
2017-Sep-16 08:58N 33°44' W 118°17'0 0.0
2017-Sep-16 08:30N 33°44' W 118°17'0 0.0
2017-Sep-16 07:59N 33°44' W 118°17'0 0.0
2017-Sep-16 07:30N 33°44' W 118°17'1 1.2
2017-Sep-16 07:00N 33°44' W 118°16'3 6.3
2017-Sep-16 06:29N 33°44' W 118°12'1 1.7
2017-Sep-16 05:59N 33°45' W 118°12'2 3.5
2017-Sep-16 05:30N 33°43' W 118°14'3 5.4
2017-Sep-16 05:00N 33°44' W 118°17'0 0.0
2017-Sep-16 04:30N 33°44' W 118°17'0 0.6
2017-Sep-16 04:00N 33°44' W 118°17'3 5.7
2017-Sep-16 03:30N 33°44' W 118°13'1 2.6
2017-Sep-16 03:00N 33°45' W 118°12'1 2.2
2017-Sep-16 02:30N 33°44' W 118°13'0 0.0
2017-Sep-16 02:00N 33°44' W 118°13'1 2.2
2017-Sep-16 01:30N 33°45' W 118°12'0 0.1
2017-Sep-16 00:59N 33°45' W 118°12'0 0.2
2017-Sep-16 00:30N 33°45' W 118°12'1 1.9
2017-Sep-16 00:00N 33°46' W 118°13'1 1.6
2017-Sep-15 23:30N 33°46' W 118°14'0 0.3
2017-Sep-15 23:00N 33°46' W 118°14'1 1.7
2017-Sep-15 22:29N 33°46' W 118°13'3 5.8
2017-Sep-15 21:58N 33°43' W 118°15'1 2.2
2017-Sep-15 21:30N 33°44' W 118°15'0 0.9
2017-Sep-15 21:00N 33°44' W 118°16'1 2.5
2017-Sep-15 20:30N 33°43' W 118°15'0 0.6
2017-Sep-15 20:00N 33°43' W 118°15'2 4.2
2017-Sep-15 19:30N 33°44' W 118°13'1 1.4
2017-Sep-15 19:00N 33°45' W 118°13'0 0.0
2017-Sep-15 18:29N 33°45' W 118°13'0 0.9
2017-Sep-15 18:00N 33°45' W 118°13'0 0.1
2017-Sep-15 17:29N 33°45' W 118°13'0 0.0
2017-Sep-15 16:59N 33°45' W 118°13'0 0.3
2017-Sep-15 16:30N 33°45' W 118°13'2 3.6
2017-Sep-15 15:56N 33°44' W 118°12'0 0.5
2017-Sep-15 15:30N 33°44' W 118°12'1 1.5
2017-Sep-15 14:58N 33°44' W 118°12'1 2.7
2017-Sep-15 14:30N 33°45' W 118°13'0 0.7
2017-Sep-15 14:00N 33°46' W 118°13'0 0.2
2017-Sep-15 13:30N 33°46' W 118°13'1 1.7
2017-Sep-15 12:59N 33°46' W 118°14'0 0.1
2017-Sep-15 12:30N 33°46' W 118°14'1 2.8
2017-Sep-15 11:59N 33°45' W 118°13'2 3.5
2017-Sep-15 11:30N 33°44' W 118°12'0 0.1
2017-Sep-15 11:00N 33°44' W 118°12'4 7.3
2017-Sep-15 10:30N 33°43' W 118°16'1 2.2
2017-Sep-15 09:58N 33°44' W 118°17'0 0.0
2017-Sep-15 09:30N 33°44' W 118°17'0 0.0
2017-Sep-15 09:00N 33°44' W 118°17'0 0.0
2017-Sep-15 08:29N 33°44' W 118°17'0 0.0
2017-Sep-15 08:00N 33°44' W 118°17'0 0.0
2017-Sep-15 07:29N 33°44' W 118°17'0 0.0
2017-Sep-15 06:58N 33°44' W 118°17'0 0.0
2017-Sep-15 06:30N 33°44' W 118°17'0 0.0
2017-Sep-15 06:00N 33°44' W 118°17'0 0.0
2017-Sep-15 05:30N 33°44' W 118°17'0 0.0
2017-Sep-15 04:58N 33°44' W 118°17'0 0.0
2017-Sep-15 04:30N 33°44' W 118°17'0 0.0
2017-Sep-15 04:00N 33°44' W 118°17'0 0.0
2017-Sep-15 03:30N 33°44' W 118°17'0 0.0
2017-Sep-15 03:00N 33°44' W 118°17'0 0.0
2017-Sep-15 02:30N 33°44' W 118°17'0 0.0
2017-Sep-15 02:00N 33°44' W 118°17'0 0.0
2017-Sep-15 01:30N 33°44' W 118°17'0 0.0
2017-Sep-15 01:00N 33°44' W 118°17'0 0.0
2017-Sep-15 00:30N 33°44' W 118°17'0 0.0
2017-Sep-14 23:58N 33°44' W 118°17'0 0.0
2017-Sep-14 23:30N 33°44' W 118°17'0 0.0
2017-Sep-14 22:59N 33°44' W 118°17'0 0.0
2017-Sep-14 22:30N 33°44' W 118°17'0 0.0
2017-Sep-14 22:00N 33°44' W 118°17'0 0.0
2017-Sep-14 21:30N 33°44' W 118°17'0 0.0
2017-Sep-14 21:00N 33°44' W 118°17'0 0.0
2017-Sep-14 20:30N 33°44' W 118°17'0 0.0
2017-Sep-14 20:00N 33°44' W 118°17'3 5.0
2017-Sep-14 19:30N 33°43' W 118°14'2 4.5
2017-Sep-14 19:01N 33°46' W 118°13'0 0.0
2017-Sep-14 18:30N 33°46' W 118°13'0 0.0
2017-Sep-14 18:00N 33°46' W 118°13'0 0.8
2017-Sep-14 17:30N 33°45' W 118°13'2 4.7
2017-Sep-14 17:00N 33°43' W 118°11'1 1.1
2017-Sep-14 16:30N 33°44' W 118°12'1 1.2
2017-Sep-14 15:59N 33°44' W 118°12'3 5.8
2017-Sep-14 15:30N 33°43' W 118°16'2 3.4
2017-Sep-14 15:00N 33°44' W 118°17'0 0.0
2017-Sep-14 14:28N 33°44' W 118°17'  
Track history (hours):
 
Tides and Currents Weather Stations Pressure Air Temp Water Temp Dewpoint Dewpoint Depression Visibility Wind Speed Wind Dir Waves Ship Positions

Master

Owner: Crowley Marine Services, SEATTLE, WA. More information available from US FCC via Universal Licensing System and Coast Guard Vessel Documentation Center.

Last reported at 2017-Sep-24 14:01 UTC. Time now 2017-Sep-24 14:09 UTC.
Position N 33°44' W 118°17'.

Length 30 m; draft 5.3 m.

Type: Tug. MMSI: 366755010.

Date/timePositionNaut miles runAvg speedWind from/ knotsBaromVisibWave heightAir tempDewpointWater temp
2017-Sep-24 14:01N 33°44' W 118°17'0 0.0
2017-Sep-24 13:31N 33°44' W 118°17'0 0.0
2017-Sep-24 13:00N 33°44' W 118°17'0 0.0
2017-Sep-24 12:30N 33°44' W 118°17'0 0.0
2017-Sep-24 12:01N 33°44' W 118°17'0 0.0
2017-Sep-24 11:31N 33°44' W 118°17'0 0.0
2017-Sep-24 11:00N 33°44' W 118°17'0 0.0
2017-Sep-24 10:30N 33°44' W 118°17'0 0.0
2017-Sep-24 10:00N 33°44' W 118°17'0 0.0
2017-Sep-24 09:30N 33°44' W 118°17'0 0.0
2017-Sep-24 09:00N 33°44' W 118°17'0 0.0
2017-Sep-24 08:30N 33°44' W 118°17'0 0.0
2017-Sep-24 08:01N 33°44' W 118°17'0 0.0
2017-Sep-24 07:26N 33°44' W 118°17'0 0.0
2017-Sep-24 07:00N 33°44' W 118°17'0 0.0
2017-Sep-24 06:30N 33°44' W 118°17'0 0.0
2017-Sep-24 05:58N 33°44' W 118°17'0 0.0
2017-Sep-24 05:28N 33°44' W 118°17'0 0.0
2017-Sep-24 05:00N 33°44' W 118°17'0 0.0
2017-Sep-24 04:30N 33°44' W 118°17'0 0.0
2017-Sep-24 04:01N 33°44' W 118°17'0 0.0
2017-Sep-24 03:30N 33°44' W 118°17'1 1.6
2017-Sep-24 03:00N 33°44' W 118°16'2 4.5
2017-Sep-24 02:30N 33°46' W 118°16'0 0.1
2017-Sep-24 01:58N 33°46' W 118°16'2 3.7
2017-Sep-24 01:30N 33°44' W 118°17'0 0.1
2017-Sep-24 00:45N 33°44' W 118°17'0 0.0
2017-Sep-24 00:31N 33°44' W 118°17'0 0.0
2017-Sep-24 00:00N 33°44' W 118°17'0 0.0
2017-Sep-23 23:30N 33°44' W 118°17'0 0.0
2017-Sep-23 23:00N 33°44' W 118°17'0 0.0
2017-Sep-23 22:30N 33°44' W 118°17'0 0.0
2017-Sep-23 21:55N 33°44' W 118°17'0 0.0
2017-Sep-23 21:26N 33°44' W 118°17'0 0.0
2017-Sep-23 21:00N 33°44' W 118°17'0 0.0
2017-Sep-23 20:19N 33°44' W 118°17'0 0.0
2017-Sep-23 19:55N 33°44' W 118°17'2 0.0
2017-Sep-22 02:00N 33°45' W 118°15'0 0.1
2017-Sep-22 01:27N 33°45' W 118°15'1 3.2
2017-Sep-22 01:00N 33°46' W 118°13'1 1.2
2017-Sep-22 00:30N 33°46' W 118°13'3 5.6
2017-Sep-21 23:59N 33°43' W 118°15'2 4.6
2017-Sep-21 23:29N 33°44' W 118°17'0 0.0
2017-Sep-21 22:59N 33°44' W 118°17'0 0.0
2017-Sep-21 22:30N 33°44' W 118°17'0 0.0
2017-Sep-21 22:00N 33°44' W 118°17'0 0.0
2017-Sep-21 21:30N 33°44' W 118°17'0 0.0
2017-Sep-21 21:00N 33°44' W 118°17'0 0.0
2017-Sep-21 20:29N 33°44' W 118°17'0 0.0
2017-Sep-21 20:00N 33°44' W 118°17'0 0.0
2017-Sep-21 19:30N 33°44' W 118°17'0 0.0
2017-Sep-21 19:00N 33°44' W 118°17'0 0.0
2017-Sep-21 18:30N 33°44' W 118°17'0 0.0
2017-Sep-21 18:00N 33°44' W 118°17'0 0.0
2017-Sep-21 17:30N 33°44' W 118°17'0 0.0
2017-Sep-21 17:00N 33°44' W 118°17'0 0.0
2017-Sep-21 16:30N 33°44' W 118°17'0 0.0
2017-Sep-21 16:00N 33°44' W 118°17'0 0.0
2017-Sep-21 15:29N 33°44' W 118°17'0 0.0
2017-Sep-21 14:55N 33°44' W 118°17'0 0.0
2017-Sep-21 14:29N 33°44' W 118°17'0 0.0
2017-Sep-21 13:59N 33°44' W 118°17'0 0.0
2017-Sep-21 13:30N 33°44' W 118°17'2 3.9
2017-Sep-21 12:59N 33°46' W 118°15'1 1.7
2017-Sep-21 12:29N 33°45' W 118°16'3 6.0
2017-Sep-21 12:00N 33°43' W 118°15'1 2.2
2017-Sep-21 11:30N 33°43' W 118°14'2 3.2
2017-Sep-21 10:58N 33°45' W 118°13'1 1.8
2017-Sep-21 10:28N 33°45' W 118°13'0 0.1
2017-Sep-21 10:00N 33°45' W 118°13'0 0.1
2017-Sep-21 09:30N 33°45' W 118°13'1 1.7
2017-Sep-21 08:57N 33°46' W 118°13'2 4.7
2017-Sep-21 08:28N 33°44' W 118°12'1 0.9
2017-Sep-21 07:28N 33°44' W 118°12'3 7.2
2017-Sep-21 07:00N 33°43' W 118°16'2 3.5
2017-Sep-21 06:30N 33°44' W 118°17'0 0.0
2017-Sep-21 06:00N 33°44' W 118°17'0 0.0
2017-Sep-21 05:30N 33°44' W 118°17'0 0.0
2017-Sep-21 05:01N 33°44' W 118°17'0 0.0
2017-Sep-21 04:30N 33°44' W 118°17'0 0.0
2017-Sep-21 04:01N 33°44' W 118°17'0 0.0
2017-Sep-21 03:30N 33°44' W 118°17'0 0.0
2017-Sep-21 03:00N 33°44' W 118°17'0 0.0
2017-Sep-21 02:30N 33°44' W 118°17'0 0.0
2017-Sep-21 02:01N 33°44' W 118°17'0 0.0
2017-Sep-21 01:31N 33°44' W 118°17'0 0.0
2017-Sep-21 01:00N 33°44' W 118°17'0 0.0
2017-Sep-21 00:29N 33°44' W 118°17'0 0.0
2017-Sep-21 00:01N 33°44' W 118°17'1 1.8
2017-Sep-20 23:29N 33°45' W 118°16'0 0.1
2017-Sep-20 23:00N 33°45' W 118°17'1 2.5
2017-Sep-20 22:31N 33°44' W 118°17'2 4.1
2017-Sep-20 22:01N 33°43' W 118°15'2 3.7
2017-Sep-20 21:30N 33°44' W 118°16'1 1.0
2017-Sep-20 21:01N 33°44' W 118°17'0 0.0
2017-Sep-20 20:30N 33°44' W 118°17'0 0.0
2017-Sep-20 20:01N 33°44' W 118°17'1 2.9
2017-Sep-20 19:30N 33°46' W 118°16'0 0.1
2017-Sep-20 19:01N 33°46' W 118°16'1 1.4
2017-Sep-20 18:30N 33°45' W 118°16'1 1.6
2017-Sep-20 18:01N 33°44' W 118°17'0 0.0
2017-Sep-20 17:30N 33°44' W 118°17'0 0.0
2017-Sep-20 17:00N 33°44' W 118°17'0 0.0
2017-Sep-20 16:31N 33°44' W 118°17'0 0.0
2017-Sep-20 16:01N 33°44' W 118°17'0 0.0
2017-Sep-20 15:29N 33°44' W 118°17'0 0.0
2017-Sep-20 14:46N 33°44' W 118°17'0 0.0
2017-Sep-20 14:00N 33°44' W 118°17'1 1.9
2017-Sep-20 13:30N 33°45' W 118°16'1 1.1
2017-Sep-20 12:59N 33°46' W 118°16'1 1.2
2017-Sep-20 12:31N 33°45' W 118°16'1 2.5
2017-Sep-20 12:00N 33°44' W 118°16'2 4.0
2017-Sep-20 11:30N 33°43' W 118°15'1 2.8
2017-Sep-20 11:00N 33°43' W 118°16'1 2.5
2017-Sep-20 10:31N 33°44' W 118°17'0 0.0
2017-Sep-20 09:57N 33°44' W 118°17'0 0.0
2017-Sep-20 09:28N 33°44' W 118°17'0 0.0
2017-Sep-20 08:59N 33°44' W 118°17'0 0.0
2017-Sep-20 08:30N 33°44' W 118°17'0 0.0
2017-Sep-20 08:00N 33°44' W 118°17'0 0.0
2017-Sep-20 07:31N 33°44' W 118°17'0 0.0
2017-Sep-20 06:59N 33°44' W 118°17'0 0.0
2017-Sep-20 06:29N 33°44' W 118°17'0 0.0
2017-Sep-20 06:00N 33°44' W 118°17'0 0.0
2017-Sep-20 05:30N 33°44' W 118°17'0 0.0
2017-Sep-20 05:00N 33°44' W 118°17'0 0.0
2017-Sep-20 04:29N 33°44' W 118°17'0 0.0
2017-Sep-20 04:00N 33°44' W 118°17'0 0.0
2017-Sep-20 03:30N 33°44' W 118°17'1 1.0
2017-Sep-20 02:59N 33°45' W 118°16'2 3.9
2017-Sep-20 02:31N 33°46' W 118°15'0 0.5
2017-Sep-20 02:01N 33°46' W 118°15'1 1.2
2017-Sep-20 01:30N 33°46' W 118°15'2 4.3
2017-Sep-20 01:00N 33°44' W 118°16'2 5.0
2017-Sep-20 00:30N 33°44' W 118°13'1 2.9
2017-Sep-20 00:00N 33°45' W 118°13'0 0.1
2017-Sep-19 23:30N 33°45' W 118°13'0 0.0
2017-Sep-19 23:00N 33°45' W 118°13'0 0.0
2017-Sep-19 22:30N 33°45' W 118°13'0 0.0
2017-Sep-19 22:00N 33°45' W 118°13'0 0.3
2017-Sep-19 21:30N 33°45' W 118°13'3 5.1
2017-Sep-19 20:59N 33°43' W 118°15'3 5.2
2017-Sep-19 20:30N 33°45' W 118°16'1 1.9
2017-Sep-19 19:59N 33°46' W 118°16'0 0.8
2017-Sep-19 19:30N 33°46' W 118°16'1 2.8
2017-Sep-19 18:59N 33°44' W 118°17'0 0.0
2017-Sep-19 18:28N 33°44' W 118°17'0 0.0
2017-Sep-19 17:58N 33°44' W 118°17'0 0.0
2017-Sep-19 17:30N 33°44' W 118°17'0 0.0
2017-Sep-19 16:56N 33°44' W 118°17'0 0.0
2017-Sep-19 16:27N 33°44' W 118°17'0 0.0
2017-Sep-19 16:00N 33°44' W 118°17'0 0.0
2017-Sep-19 15:27N 33°44' W 118°17'0 0.8
2017-Sep-19 15:00N 33°44' W 118°17'3 5.2
2017-Sep-19 14:30N 33°44' W 118°13'2 3.2
2017-Sep-19 13:47N 33°46' W 118°13'0 0.0
2017-Sep-19 13:24N 33°46' W 118°13'0 0.2
2017-Sep-19 13:00N 33°46' W 118°13'1 2.0
2017-Sep-19 12:30N 33°45' W 118°13'1 2.0
2017-Sep-19 11:59N 33°44' W 118°13'1 2.4
2017-Sep-19 11:26N 33°45' W 118°14'0 0.1
2017-Sep-19 10:59N 33°45' W 118°14'1 2.5
2017-Sep-19 10:24N 33°44' W 118°13'1 1.7
2017-Sep-19 09:40N 33°44' W 118°12'0 0.2
2017-Sep-19 09:22N 33°44' W 118°12'0 0.1
2017-Sep-19 08:56N 33°44' W 118°12'1 3.0
2017-Sep-19 08:30N 33°45' W 118°12'0 0.7
2017-Sep-19 07:52N 33°45' W 118°13'0 0.0
2017-Sep-19 07:30N 33°45' W 118°13'0 0.0
2017-Sep-19 06:54N 33°45' W 118°13'0 0.0
2017-Sep-19 06:27N 33°45' W 118°13'0 0.0
2017-Sep-19 05:57N 33°45' W 118°13'0 0.0
2017-Sep-19 05:28N 33°45' W 118°13'0 0.0
2017-Sep-19 04:56N 33°45' W 118°13'0 0.0
2017-Sep-19 04:30N 33°45' W 118°13'2 3.2
2017-Sep-19 04:01N 33°44' W 118°12'3 5.3
2017-Sep-19 03:30N 33°46' W 118°13'0 0.7
2017-Sep-19 03:00N 33°46' W 118°13'1 2.0
2017-Sep-19 02:27N 33°45' W 118°13'0 0.5
2017-Sep-19 02:00N 33°45' W 118°13'1 1.9
2017-Sep-19 01:30N 33°45' W 118°14'0 0.3
2017-Sep-19 01:00N 33°45' W 118°14'1 2.2
2017-Sep-19 00:30N 33°45' W 118°13'0 0.0
2017-Sep-19 00:00N 33°45' W 118°13'0 0.1
2017-Sep-18 23:29N 33°45' W 118°13'0 0.6
2017-Sep-18 23:00N 33°45' W 118°13'1 1.4
2017-Sep-18 22:30N 33°44' W 118°12'1 2.8
2017-Sep-18 22:00N 33°44' W 118°11'1 1.3
2017-Sep-18 21:30N 33°44' W 118°12'2 3.1
2017-Sep-18 20:59N 33°45' W 118°12'1 1.5
2017-Sep-18 20:27N 33°44' W 118°12'3 6.5
2017-Sep-18 19:59N 33°44' W 118°09'2 3.7
2017-Sep-18 19:30N 33°44' W 118°11'4 7.9
2017-Sep-18 19:00N 33°43' W 118°16'2 3.5
2017-Sep-18 18:30N 33°44' W 118°17'0 0.0
2017-Sep-18 18:00N 33°44' W 118°17'0 0.0
2017-Sep-18 17:30N 33°44' W 118°17'0 0.0
2017-Sep-18 17:00N 33°44' W 118°17'0 0.0
2017-Sep-18 16:29N 33°44' W 118°17'0 0.0
2017-Sep-18 16:00N 33°44' W 118°17'0 0.0
2017-Sep-18 15:23N 33°44' W 118°17'0 0.0
2017-Sep-18 14:58N 33°44' W 118°17'0 0.0
2017-Sep-18 14:29N 33°44' W 118°17'0 0.0
2017-Sep-18 13:59N 33°44' W 118°17'0 0.0
2017-Sep-18 13:23N 33°44' W 118°17'1 2.3
2017-Sep-18 13:00N 33°44' W 118°16'1 1.3
2017-Sep-18 12:30N 33°44' W 118°16'0 0.3
2017-Sep-18 11:59N 33°44' W 118°15'0 0.2
2017-Sep-18 11:23N 33°44' W 118°15'0 0.1
2017-Sep-18 10:57N 33°44' W 118°15'0 0.2
2017-Sep-18 10:29N 33°44' W 118°15'2 3.1
2017-Sep-18 09:59N 33°44' W 118°14'2 3.5
2017-Sep-18 09:30N 33°45' W 118°13'0 0.3
2017-Sep-18 08:47N 33°45' W 118°13'0 0.4
2017-Sep-18 08:29N 33°45' W 118°13'3 6.3
2017-Sep-18 07:59N 33°43' W 118°15'2 3.2
2017-Sep-18 07:27N 33°44' W 118°17'0 0.0
2017-Sep-18 06:52N 33°44' W 118°17'0 0.0
2017-Sep-18 06:27N 33°44' W 118°17'0 0.0
2017-Sep-18 06:00N 33°44' W 118°17'0 0.0
2017-Sep-18 05:30N 33°44' W 118°17'0 0.0
2017-Sep-18 04:59N 33°44' W 118°17'0 0.0
2017-Sep-18 04:24N 33°44' W 118°17'0 0.0
2017-Sep-18 03:57N 33°44' W 118°17'0 0.0
2017-Sep-18 03:30N 33°44' W 118°17'0 0.0
2017-Sep-18 03:00N 33°44' W 118°17'0 0.0
2017-Sep-18 02:30N 33°44' W 118°17'0 0.0
2017-Sep-18 01:55N 33°44' W 118°17'0 0.0
2017-Sep-18 01:26N 33°44' W 118°17'0 0.0
2017-Sep-18 00:56N 33°44' W 118°17'0 0.0
2017-Sep-18 00:29N 33°44' W 118°17'0 0.0
2017-Sep-18 00:00N 33°44' W 118°17'0 0.0
2017-Sep-17 23:28N 33°44' W 118°17'0 0.0
2017-Sep-17 23:00N 33°44' W 118°17'0 0.0
2017-Sep-17 22:30N 33°44' W 118°17'0 0.0
2017-Sep-17 22:00N 33°44' W 118°17'0 0.0
2017-Sep-17 21:28N 33°44' W 118°17'0 0.0
2017-Sep-17 21:00N 33°44' W 118°17'0 0.0
2017-Sep-17 20:29N 33°44' W 118°17'0 0.0
2017-Sep-17 19:59N 33°44' W 118°17'0 0.0
2017-Sep-17 19:29N 33°44' W 118°17'0 0.0
2017-Sep-17 19:00N 33°44' W 118°17'0 0.0
2017-Sep-17 18:30N 33°44' W 118°17'0 0.0
2017-Sep-17 17:58N 33°44' W 118°17'0 0.0
2017-Sep-17 17:28N 33°44' W 118°17'0 0.0
2017-Sep-17 16:59N 33°44' W 118°17'0 0.0
2017-Sep-17 16:14N 33°44' W 118°17'0 0.9
2017-Sep-17 15:49N 33°44' W 118°17'3 5.2
2017-Sep-17 15:16N 33°44' W 118°13'2 4.4
2017-Sep-17 14:51N 33°46' W 118°13'0 0.0
2017-Sep-17 13:46N 33°46' W 118°13'0 0.7
2017-Sep-17 13:27N 33°46' W 118°13'1 2.8
2017-Sep-17 12:56N 33°45' W 118°13'2 4.9
2017-Sep-17 12:30N 33°44' W 118°11'0 0.2
2017-Sep-17 11:55N 33°44' W 118°11'1 1.9
2017-Sep-17 11:30N 33°44' W 118°12'4 7.4
2017-Sep-17 10:59N 33°44' W 118°16'1 1.7
2017-Sep-17 10:30N 33°44' W 118°17'0 0.0
2017-Sep-17 09:52N 33°44' W 118°17'0 0.0
2017-Sep-17 09:28N 33°44' W 118°17'0 0.0
2017-Sep-17 09:00N 33°44' W 118°17'0 0.0
2017-Sep-17 08:28N 33°44' W 118°17'0 0.7
2017-Sep-17 07:59N 33°44' W 118°17'1 2.2
2017-Sep-17 07:29N 33°45' W 118°16'0 0.8
2017-Sep-17 06:59N 33°45' W 118°16'1 2.6
2017-Sep-17 06:29N 33°44' W 118°17'0 0.0
2017-Sep-17 06:00N 33°44' W 118°17'0 0.0
2017-Sep-17 05:29N 33°44' W 118°17'0 0.0
2017-Sep-17 04:57N 33°44' W 118°17'0 0.0
2017-Sep-17 04:30N 33°44' W 118°17'0 0.0
2017-Sep-17 03:59N 33°44' W 118°17'0 0.0
2017-Sep-17 03:30N 33°44' W 118°17'0 0.0
2017-Sep-17 03:00N 33°44' W 118°17'0 0.0
2017-Sep-17 02:30N 33°44' W 118°17'0 0.0
2017-Sep-17 02:00N 33°44' W 118°17'0 0.0
2017-Sep-17 01:30N 33°44' W 118°17'0 0.0
2017-Sep-17 01:00N 33°44' W 118°17'0 0.0
2017-Sep-17 00:30N 33°44' W 118°17'0 0.0
2017-Sep-16 23:59N 33°44' W 118°17'0 0.0
2017-Sep-16 23:28N 33°44' W 118°17'0 0.0
2017-Sep-16 22:57N 33°44' W 118°17'0 0.0
2017-Sep-16 22:28N 33°44' W 118°17'0 0.0
2017-Sep-16 22:00N 33°44' W 118°17'0 0.0
2017-Sep-16 21:30N 33°44' W 118°17'0 0.0
2017-Sep-16 21:00N 33°44' W 118°17'0 0.0
2017-Sep-16 20:30N 33°44' W 118°17'0 0.0
2017-Sep-16 20:00N 33°44' W 118°17'0 0.0
2017-Sep-16 19:29N 33°44' W 118°17'0 0.0
2017-Sep-16 19:00N 33°44' W 118°17'0 0.0
2017-Sep-16 18:30N 33°44' W 118°17'0 0.0
2017-Sep-16 18:00N 33°44' W 118°17'0 0.0
2017-Sep-16 17:27N 33°44' W 118°17'0 0.0
2017-Sep-16 16:52N 33°44' W 118°17'0 0.0
2017-Sep-16 16:25N 33°44' W 118°17'0 0.0
2017-Sep-16 16:00N 33°44' W 118°17'0 0.0
2017-Sep-16 15:30N 33°44' W 118°17'0 0.0
2017-Sep-16 14:55N 33°44' W 118°17'0 0.0
2017-Sep-16 14:23N 33°44' W 118°17'0 0.0
2017-Sep-16 13:57N 33°44' W 118°17'0 0.0
2017-Sep-16 13:11N 33°44' W 118°17'0 0.0
2017-Sep-16 12:51N 33°44' W 118°17'0 0.0
2017-Sep-16 12:19N 33°44' W 118°17'0 0.0
2017-Sep-16 12:00N 33°44' W 118°17'0 0.0
2017-Sep-16 11:30N 33°44' W 118°17'0 0.0
2017-Sep-16 10:58N 33°44' W 118°17'0 0.0
2017-Sep-16 10:28N 33°44' W 118°17'0 0.0
2017-Sep-16 10:00N 33°44' W 118°17'0 0.0
2017-Sep-16 09:29N 33°44' W 118°17'0 0.0
2017-Sep-16 08:58N 33°44' W 118°17'0 0.0
2017-Sep-16 08:30N 33°44' W 118°17'0 0.0
2017-Sep-16 07:59N 33°44' W 118°17'0 0.0
2017-Sep-16 07:30N 33°44' W 118°17'1 1.2
2017-Sep-16 07:00N 33°44' W 118°16'3 6.3
2017-Sep-16 06:29N 33°44' W 118°12'1 1.7
2017-Sep-16 05:59N 33°45' W 118°12'2 3.5
2017-Sep-16 05:30N 33°43' W 118°14'3 5.4
2017-Sep-16 05:00N 33°44' W 118°17'0 0.0
2017-Sep-16 04:30N 33°44' W 118°17'0 0.6
2017-Sep-16 04:00N 33°44' W 118°17'3 5.7
2017-Sep-16 03:30N 33°44' W 118°13'1 2.6
2017-Sep-16 03:00N 33°45' W 118°12'1 2.2
2017-Sep-16 02:30N 33°44' W 118°13'0 0.0
2017-Sep-16 02:00N 33°44' W 118°13'1 2.2
2017-Sep-16 01:30N 33°45' W 118°12'0 0.1
2017-Sep-16 00:59N 33°45' W 118°12'0 0.2
2017-Sep-16 00:30N 33°45' W 118°12'1 1.9
2017-Sep-16 00:00N 33°46' W 118°13'1 1.6
2017-Sep-15 23:30N 33°46' W 118°14'0 0.3
2017-Sep-15 23:00N 33°46' W 118°14'1 1.7
2017-Sep-15 22:29N 33°46' W 118°13'3 5.8
2017-Sep-15 21:58N 33°43' W 118°15'1 2.2
2017-Sep-15 21:30N 33°44' W 118°15'0 0.9
2017-Sep-15 21:00N 33°44' W 118°16'1 2.5
2017-Sep-15 20:30N 33°43' W 118°15'0 0.6
2017-Sep-15 20:00N 33°43' W 118°15'2 4.2
2017-Sep-15 19:30N 33°44' W 118°13'1 1.4
2017-Sep-15 19:00N 33°45' W 118°13'0 0.0
2017-Sep-15 18:29N 33°45' W 118°13'0 0.9
2017-Sep-15 18:00N 33°45' W 118°13'0 0.1
2017-Sep-15 17:29N 33°45' W 118°13'0 0.0
2017-Sep-15 16:59N 33°45' W 118°13'0 0.3
2017-Sep-15 16:30N 33°45' W 118°13'2 3.6
2017-Sep-15 15:56N 33°44' W 118°12'0 0.5
2017-Sep-15 15:30N 33°44' W 118°12'1 1.5
2017-Sep-15 14:58N 33°44' W 118°12'1 2.7
2017-Sep-15 14:30N 33°45' W 118°13'0 0.7
2017-Sep-15 14:00N 33°46' W 118°13'0 0.2
2017-Sep-15 13:30N 33°46' W 118°13'1 1.7
2017-Sep-15 12:59N 33°46' W 118°14'0 0.1
2017-Sep-15 12:30N 33°46' W 118°14'1 2.8
2017-Sep-15 11:59N 33°45' W 118°13'2 3.5
2017-Sep-15 11:30N 33°44' W 118°12'0 0.1
2017-Sep-15 11:00N 33°44' W 118°12'4 7.3
2017-Sep-15 10:30N 33°43' W 118°16'1 2.2
2017-Sep-15 09:58N 33°44' W 118°17'0 0.0
2017-Sep-15 09:30N 33°44' W 118°17'0 0.0
2017-Sep-15 09:00N 33°44' W 118°17'0 0.0
2017-Sep-15 08:29N 33°44' W 118°17'0 0.0
2017-Sep-15 08:00N 33°44' W 118°17'0 0.0
2017-Sep-15 07:29N 33°44' W 118°17'0 0.0
2017-Sep-15 06:58N 33°44' W 118°17'0 0.0
2017-Sep-15 06:30N 33°44' W 118°17'0 0.0
2017-Sep-15 06:00N 33°44' W 118°17'0 0.0
2017-Sep-15 05:30N 33°44' W 118°17'0 0.0
2017-Sep-15 04:58N 33°44' W 118°17'0 0.0
2017-Sep-15 04:30N 33°44' W 118°17'0 0.0
2017-Sep-15 04:00N 33°44' W 118°17'0 0.0
2017-Sep-15 03:30N 33°44' W 118°17'0 0.0
2017-Sep-15 03:00N 33°44' W 118°17'0 0.0
2017-Sep-15 02:30N 33°44' W 118°17'0 0.0
2017-Sep-15 02:00N 33°44' W 118°17'0 0.0
2017-Sep-15 01:30N 33°44' W 118°17'0 0.0
2017-Sep-15 01:00N 33°44' W 118°17'0 0.0
2017-Sep-15 00:30N 33°44' W 118°17'0 0.0
2017-Sep-14 23:58N 33°44' W 118°17'0 0.0
2017-Sep-14 23:30N 33°44' W 118°17'0 0.0
2017-Sep-14 22:59N 33°44' W 118°17'0 0.0
2017-Sep-14 22:30N 33°44' W 118°17'0 0.0
2017-Sep-14 22:00N 33°44' W 118°17'0 0.0
2017-Sep-14 21:30N 33°44' W 118°17'0 0.0
2017-Sep-14 21:00N 33°44' W 118°17'0 0.0
2017-Sep-14 20:30N 33°44' W 118°17'0 0.0
2017-Sep-14 20:00N 33°44' W 118°17'3 5.0
2017-Sep-14 19:30N 33°43' W 118°14'2 4.5
2017-Sep-14 19:01N 33°46' W 118°13'0 0.0
2017-Sep-14 18:30N 33°46' W 118°13'0 0.0
2017-Sep-14 18:00N 33°46' W 118°13'0 0.8
2017-Sep-14 17:30N 33°45' W 118°13'2 4.7
2017-Sep-14 17:00N 33°43' W 118°11'1 1.1
2017-Sep-14 16:30N 33°44' W 118°12'1 1.2
2017-Sep-14 15:59N 33°44' W 118°12'3 5.8
2017-Sep-14 15:30N 33°43' W 118°16'2 3.4
2017-Sep-14 15:00N 33°44' W 118°17'0 0.0
2017-Sep-14 14:28N 33°44' W 118°17'  

Dump ship's entire track history